Time;durP1;ratioP1;P1;durP2;ratioP2;P2;SDS_P1;SDS_P2;PMS_P1;PMS_P2;Temp;Humidity;BMP_temperature;BMP_pressure;BME280_temperature;BME280_humidity;BME280_pressure;Samples;Min_cycle;Max_cycle;Signal;HPM_P1;HPM_P2
2023/09/01 00:02:05;;;;;;;;;;;;;;;22.61;52.35;100550.16;1955319;89;23751;-75
2023/09/01 00:05:40;;;;;;;;;;;;;;;22.62;52.23;100546.93;2027365;86;22604;-75
2023/09/01 00:08:48;;;;;;;;;;;;;;;22.62;52.26;100548.28;2039216;85;23583;-76
2023/09/01 00:11:57;;;;;;;;;;;;;;;22.62;52.21;100544.23;2031795;86;22622;-75
2023/09/01 00:14:57;;;;;;;;;;;;;;;22.63;52.22;100552.62;2016130;87;22528;-75
2023/09/01 00:18:06;;;;;;;;;;;;;;;22.61;52.14;100554.73;2014722;86;50581;-76
2023/09/01 00:21:45;;;;;;;;;;;;;;;;;;;;;
2023/09/01 00:31:32;;;;;;;;;;;;;;;22.58;52.26;100553.78;2026893;87;22860;-75
2023/09/01 00:41:10;;;;;;;;;;;;;;;22.54;52.31;100564.17;2040270;82;22908;-75
2023/09/01 00:44:08;;;;;;;;;;;;;;;22.53;52.38;100554.93;1997884;86;23088;-76
2023/09/01 00:47:17;;;;;;;;;;;;;;;22.53;52.37;100560.33;2026114;87;23458;-75
2023/09/01 00:50:27;;;;;;;;;;;;;;;22.52;52.34;100562.20;2023040;86;52260;-74
2023/09/01 00:57:11;;;;;;;;;;;;;;;22.50;52.39;100562.92;2047837;85;22660;-75
2023/09/01 01:00:14;;;;;;;;;;;;;;;22.50;52.38;100560.23;2008012;88;23700;-75
2023/09/01 01:06:55;;;;;;;;;;;;;;;;;;;;;
2023/09/01 01:19:47;;;;;;;;;;;;;;;22.50;52.38;100567.49;2041303;83;23714;-76
2023/09/01 01:23:14;;;;;;;;;;;;;;;22.49;52.35;100563.16;2131985;82;22424;-76
2023/09/01 01:26:43;;;;;;;;;;;;;;;22.47;52.34;100562.53;2112238;83;22309;-75
2023/09/01 01:30:00;;;;;;;;;;;;;;;22.47;52.39;100564.70;2085850;84;22706;-76
2023/09/01 01:48:55;;;;;;;;;;;;;;;22.44;52.34;100557.04;2120126;78;23564;-74
2023/09/01 01:52:39;;;;;;;;;;;;;;;;;;;;;
2023/09/01 02:12:31;;;;;;;;;;;;;;;22.45;52.36;100561.91;2160089;79;23905;-74
2023/09/01 02:15:42;;;;;;;;;;;;;;;22.44;52.40;100557.04;2171227;81;23547;-74
2023/09/01 02:18:54;;;;;;;;;;;;;;;22.45;52.57;100559.20;2180901;81;23364;-75
2023/09/01 02:28:46;;;;;;;;;;;;;;;22.42;52.42;100560.45;1949772;88;22662;-75
2023/09/01 02:31:58;;;;;;;;;;;;;;;22.44;52.36;100558.38;1949760;89;22380;-75
2023/09/01 02:38:29;;;;;;;;;;;;;;;22.42;52.38;100555.59;1949323;88;24523;-76
2023/09/01 02:48:54;;;;;;;;;;;;;;;22.41;52.33;100570.95;1923059;90;22904;-75
2023/09/01 03:05:25;;;;;;;;;;;;;;;22.41;52.31;100575.52;2082807;81;23311;-75
2023/09/01 03:12:17;;;;;;;;;;;;;;;;;;;;;
2023/09/01 03:18:59;;;;;;;;;;;;;;;;;;;;;
2023/09/01 03:29:18;;;;;;;;;;;;;;;22.38;52.21;100584.33;2003073;84;23517;-74
2023/09/01 03:32:38;;;;;;;;;;;;;;;22.40;52.20;100592.19;2013708;87;23297;-77
2023/09/01 03:35:54;;;;;;;;;;;;;;;22.37;52.19;100592.08;2002508;88;22928;-75
2023/09/01 03:39:15;;;;;;;;;;;;;;;22.38;52.21;100592.41;1952973;89;22804;-76
2023/09/01 03:45:27;;;;;;;;;;;;;;;22.36;52.23;100590.44;1892718;92;22623;-74
2023/09/01 03:55:38;;;;;;;;;;;;;;;;;;;;;
2023/09/01 03:58:41;;;;;;;;;;;;;;;22.34;52.10;100596.55;2011571;88;22855;-74
2023/09/01 04:05:03;;;;;;;;;;;;;;;22.35;52.17;100596.03;1898463;93;22574;-76
2023/09/01 04:08:17;;;;;;;;;;;;;;;22.34;52.19;100593.86;1893673;93;51641;-75
2023/09/01 04:11:20;;;;;;;;;;;;;;;22.33;52.09;100594.91;1872688;92;22712;-75
2023/09/01 04:50:48;;;;;;;;;;;;;;;22.30;52.13;100618.25;2032751;81;23635;-76
2023/09/01 04:57:13;;;;;;;;;;;;;;;22.30;52.15;100611.50;1993524;85;22571;-76
2023/09/01 05:00:55;;;;;;;;;;;;;;;22.30;52.16;100611.50;2064158;85;22597;-76
2023/09/01 05:04:17;;;;;;;;;;;;;;;;;;;;;
2023/09/01 05:11:02;;;;;;;;;;;;;;;22.28;52.44;100617.62;1997695;88;23312;-77
2023/09/01 05:14:30;;;;;;;;;;;;;;;;;;;;;
2023/09/01 05:21:09;;;;;;;;;;;;;;;22.27;52.84;100617.81;1909317;90;22422;-77
2023/09/01 05:37:44;;;;;;;;;;;;;;;;;;;;;
2023/09/01 05:44:39;;;;;;;;;;;;;;;;;;;;;
2023/09/01 05:47:34;;;;;;;;;;;;;;;22.61;52.61;100631.59;1965153;88;23220;-76
2023/09/01 05:50:54;;;;;;;;;;;;;;;22.62;52.88;100631.88;1998692;88;23225;-74
2023/09/01 05:57:25;;;;;;;;;;;;;;;22.66;53.04;100647.97;1974964;87;22504;-75
2023/09/01 06:00:49;;;;;;;;;;;;;;;22.73;53.35;100651.45;2006417;88;22511;-75
2023/09/01 06:04:14;;;;;;;;;;;;;;;22.82;53.35;100652.08;2005376;87;22579;-75
2023/09/01 06:07:13;;;;;;;;;;;;;;;22.88;53.36;100654.45;2006091;87;22381;-75
2023/09/01 06:10:20;;;;;;;;;;;;;;;22.93;53.34;100662.73;2003754;87;51407;-77
2023/09/01 06:13:48;;;;;;;;;;;;;;;;;;;;;
2023/09/01 06:16:49;;;;;;;;;;;;;;;22.95;53.51;100667.41;2019419;87;22372;-75
2023/09/01 06:20:04;;;;;;;;;;;;;;;22.95;53.57;100672.80;2004439;87;22618;-75
2023/09/01 06:23:13;;;;;;;;;;;;;;;22.95;53.63;100671.45;2004667;87;21952;-75
2023/09/01 06:26:17;;;;;;;;;;;;;;;22.93;53.58;100674.87;2075062;84;22693;-76
2023/09/01 06:29:29;;;;;;;;;;;;;;;22.92;53.58;100678.11;2070931;85;22507;-76
2023/09/01 06:32:36;;;;;;;;;;;;;;;22.92;53.59;100666.48;2113211;79;23583;-76
2023/09/01 06:36:27;;;;;;;;;;;;;;;22.96;53.54;100677.97;2184841;81;22697;-76
2023/09/01 06:39:03;;;;;;;;;;;;;;;22.98;53.45;100682.67;2170197;80;22466;-76
2023/09/01 06:42:26;;;;;;;;;;;;;;;23.02;53.35;100676.36;2183996;80;22503;-75
2023/09/01 06:45:40;;;;;;;;;;;;;;;23.06;53.26;100676.22;2181257;80;23172;-75
2023/09/01 06:48:48;;;;;;;;;;;;;;;23.08;53.21;100672.80;2178047;80;22491;-76
2023/09/01 06:52:00;;;;;;;;;;;;;;;23.05;53.28;100684.02;2178898;80;22745;-76
2023/09/01 06:55:09;;;;;;;;;;;;;;;23.09;53.21;100686.59;2173340;81;22332;-76
2023/09/01 07:04:58;;;;;;;;;;;;;;;23.14;52.98;100688.13;2061961;85;22859;-77
2023/09/01 07:11:20;;;;;;;;;;;;;;;;;;;;;
2023/09/01 07:14:26;;;;;;;;;;;;;;;23.16;52.85;100688.75;1983206;88;22776;-75
2023/09/01 07:20:55;;;;;;;;;;;;;;;23.18;52.65;100690.72;1973976;88;22978;-76
2023/09/01 07:24:22;;;;;;;;;;;;;;;23.19;52.58;100692.37;1977827;88;22832;-76
2023/09/01 07:30:44;;;;;;;;;;;;;;;23.21;52.38;100703.79;1941576;90;23098;-76
2023/09/01 07:34:13;;;;;;;;;;;;;;;23.20;52.38;100706.19;2002281;85;22708;-76
2023/09/01 07:41:05;;;;;;;;;;;;;;;;;;;;;
2023/09/01 07:44:25;;;;;;;;;;;;;;;23.16;52.24;100714.39;1888535;91;22562;-75
2023/09/01 07:51:16;;;;;;;;;;;;;;;;;;;;;
2023/09/01 07:54:20;;;;;;;;;;;;;;;23.18;52.14;100723.12;1936114;88;23894;-77
2023/09/01 07:57:38;;;;;;;;;;;;;;;;;;;;;
2023/09/01 08:01:01;;;;;;;;;;;;;;;;;;;;;
2023/09/01 08:04:12;;;;;;;;;;;;;;;;;;;;;
2023/09/01 08:07:12;;;;;;;;;;;;;;;23.16;52.03;100714.39;1981940;88;22583;-75
2023/09/01 08:10:30;;;;;;;;;;;;;;;23.18;51.97;100719.59;2027031;85;49926;-76
2023/09/01 08:13:31;;;;;;;;;;;;;;;23.15;51.92;100708.70;2047993;85;22733;-75
2023/09/01 08:20:19;;;;;;;;;;;;;;;23.14;51.90;100717.82;2034423;82;22332;-75
2023/09/01 08:23:32;;;;;;;;;;;;;;;23.14;51.89;100717.00;2035176;85;22399;-76
2023/09/01 08:27:12;;;;;;;;;;;;;;;23.13;51.87;100724.27;2063329;86;51413;-74
2023/09/01 08:33:26;;;;;;;;;;;;;;;23.13;51.76;100721.58;2090872;81;22684;-75
2023/09/01 08:36:29;;;;;;;;;;;;;;;23.11;51.85;100718.77;2161059;81;51858;-76
2023/09/01 08:42:55;;;;;;;;;;;;;;;23.09;51.75;100724.38;2152850;80;22717;-76
2023/09/01 08:52:46;;;;;;;;;;;;;;;;;;;;;
2023/09/01 09:02:46;;;;;;;;;;;;;;;23.02;51.82;100733.03;2031772;86;23476;-76
2023/09/01 09:05:56;;;;;;;;;;;;;;;23.03;51.79;100737.38;1996762;88;22868;-76
2023/09/01 09:09:20;;;;;;;;;;;;;;;22.98;51.83;100731.78;1999904;88;23479;-76
2023/09/01 09:23:30;;;;;;;;;;;;;;;22.95;51.89;100732.99;1883988;90;22726;-75
2023/09/01 09:26:40;;;;;;;;;;;;;;;22.97;51.86;100731.48;1856228;95;22806;-76
2023/09/01 09:29:58;;;;;;;;;;;;;;;22.93;51.94;100731.55;1893695;91;22679;-76
2023/09/01 09:36:48;;;;;;;;;;;;;;;22.89;51.98;100728.45;1875527;93;22750;-76
2023/09/01 09:39:59;;;;;;;;;;;;;;;;;;;;;
2023/09/01 09:49:32;;;;;;;;;;;;;;;22.86;52.05;100745.03;1877052;94;22774;-75
2023/09/01 09:59:46;;;;;;;;;;;;;;;22.83;52.04;100741.41;1808039;97;22495;-75
2023/09/01 10:12:49;;;;;;;;;;;;;;;22.81;51.92;100740.78;1756765;98;23357;-76
2023/09/01 10:15:58;;;;;;;;;;;;;;;22.78;51.95;100752.81;1781669;98;23921;-76
2023/09/01 10:32:20;;;;;;;;;;;;;;;22.87;51.63;100753.98;1839809;94;22435;-76
2023/09/01 10:35:43;;;;;;;;;;;;;;;22.86;51.65;100749.08;1860138;92;22790;-76
2023/09/01 10:38:55;;;;;;;;;;;;;;;22.89;51.62;100743.78;1924215;91;22552;-77
2023/09/01 10:42:07;;;;;;;;;;;;;;;22.92;51.48;100743.39;1874471;91;22567;-76
2023/09/01 10:45:27;;;;;;;;;;;;;;;;;;;;;
2023/09/01 10:49:04;;;;;;;;;;;;;;;22.89;51.60;100754.58;1874772;92;22853;-76
2023/09/01 10:52:28;;;;;;;;;;;;;;;;;;;;;
2023/09/01 10:55:41;;;;;;;;;;;;;;;22.92;51.43;100750.95;1929305;92;22647;-76
2023/09/01 11:02:43;;;;;;;;;;;;;;;22.92;51.36;100740.69;1932270;91;24417;-77
2023/09/01 11:15:56;;;;;;;;;;;;;;;22.91;51.37;100753.33;1981718;82;24302;-75
2023/09/01 11:19:03;;;;;;;;;;;;;;;22.93;51.27;100753.13;1940480;89;50296;-75
2023/09/01 11:22:04;;;;;;;;;;;;;;;22.93;51.24;100748.55;2000534;88;51510;-75
2023/09/01 11:25:08;;;;;;;;;;;;;;;22.94;51.20;100748.89;2000406;89;50340;-74
2023/09/01 11:28:11;;;;;;;;;;;;;;;22.93;51.24;100738.29;2000538;87;51570;-75
2023/09/01 11:31:12;;;;;;;;;;;;;;;22.89;51.35;100746.48;2000555;87;50783;-75
2023/09/01 11:34:15;;;;;;;;;;;;;;;22.90;51.29;100748.98;2000471;88;50712;-75
2023/09/01 11:37:17;;;;;;;;;;;;;;;22.90;51.32;100753.55;2000672;88;50283;-76
2023/09/01 11:40:18;;;;;;;;;;;;;;;22.90;51.23;100750.33;2000571;89;50610;-76
2023/09/01 11:43:20;;;;;;;;;;;;;;;22.89;51.27;100749.17;2000569;87;52600;-76
2023/09/01 11:46:34;;;;;;;;;;;;;;;22.86;51.36;100752.30;2028848;87;50305;-75
2023/09/01 11:49:35;;;;;;;;;;;;;;;22.84;51.40;100749.83;2028983;87;50240;-75
2023/09/01 11:52:55;;;;;;;;;;;;;;;22.85;51.40;100747.95;2029019;87;50525;-75
2023/09/01 11:56:01;;;;;;;;;;;;;;;22.83;51.41;100745.45;2150153;81;51999;-74
2023/09/01 11:59:02;;;;;;;;;;;;;;;22.87;51.33;100758.03;2146185;82;50694;-74
2023/09/01 12:02:04;;;;;;;;;;;;;;;22.90;51.23;100763.00;2146051;83;51413;-75
2023/09/01 12:05:06;;;;;;;;;;;;;;;22.88;51.23;100763.20;2145697;83;50695;-75
2023/09/01 12:08:09;;;;;;;;;;;;;;;22.88;51.23;100768.59;2127111;83;52528;-76
2023/09/01 12:11:10;;;;;;;;;;;;;;;22.87;51.23;100768.81;2127034;83;52545;-77
2023/09/01 12:14:22;;;;;;;;;;;;;;;22.85;51.24;100761.45;2149411;82;51376;-75
2023/09/01 12:17:24;;;;;;;;;;;;;;;22.86;51.19;100764.44;2166338;81;50312;-75
2023/09/01 12:20:25;;;;;;;;;;;;;;;22.88;51.11;100756.97;2159396;81;51214;-75
2023/09/01 12:23:31;;;;;;;;;;;;;;;22.85;51.13;100750.66;2163978;82;50238;-75
2023/09/01 12:26:34;;;;;;;;;;;;;;;22.82;51.19;100739.23;2164174;81;50779;-75
2023/09/01 12:29:35;;;;;;;;;;;;;;;22.88;51.03;100735.39;2164208;81;51580;-76
2023/09/01 12:32:37;;;;;;;;;;;;;;;22.90;50.90;100742.77;2159046;82;51162;-75
2023/09/01 12:35:40;;;;;;;;;;;;;;;22.92;50.85;100739.34;2159412;81;50225;-76
2023/09/01 12:38:43;;;;;;;;;;;;;;;22.92;50.79;100743.39;2159566;82;50750;-75
2023/09/01 12:41:45;;;;;;;;;;;;;;;22.92;50.77;100748.27;2159592;81;51523;-76
2023/09/01 12:44:46;;;;;;;;;;;;;;;22.91;50.78;100746.58;2159468;82;52692;-76
2023/09/01 12:47:48;;;;;;;;;;;;;;;22.93;50.68;100742.34;2160144;81;50875;-76
2023/09/01 12:50:49;;;;;;;;;;;;;;;22.92;50.61;100746.91;2164459;81;50463;-77
2023/09/01 12:53:51;;;;;;;;;;;;;;;22.87;50.85;100748.05;2164202;81;50401;-75
2023/09/01 12:56:53;;;;;;;;;;;;;;;22.88;50.76;100747.53;2117920;82;51113;-75
2023/09/01 12:59:54;;;;;;;;;;;;;;;22.78;50.94;100746.07;2159413;82;49641;-76
2023/09/01 13:02:56;;;;;;;;;;;;;;;22.81;50.92;100747.52;2159268;82;50707;-74
2023/09/01 13:05:57;;;;;;;;;;;;;;;22.81;50.89;100751.08;2159413;81;50381;-75
2023/09/01 13:09:01;;;;;;;;;;;;;;;22.80;50.88;100760.19;2137022;82;50043;-77
2023/09/01 13:12:02;;;;;;;;;;;;;;;22.81;50.93;100749.73;2159603;82;50679;-76
2023/09/01 13:15:04;;;;;;;;;;;;;;;22.75;50.92;100741.10;2159137;81;51532;-76
2023/09/01 13:18:07;;;;;;;;;;;;;;;22.79;50.88;100744.23;2177794;79;50329;-76
2023/09/01 13:21:09;;;;;;;;;;;;;;;22.76;50.89;100750.02;2161209;81;52644;-77
2023/09/01 13:24:10;;;;;;;;;;;;;;;22.77;50.89;100749.00;2189045;81;50855;-76
2023/09/01 13:27:12;;;;;;;;;;;;;;;22.75;50.89;100754.59;2166078;81;51467;-75
2023/09/01 13:30:13;;;;;;;;;;;;;;;22.73;50.93;100751.27;2166010;81;51505;-76
2023/09/01 13:33:15;;;;;;;;;;;;;;;22.72;50.98;100752.84;2189056;80;52389;-75
2023/09/01 13:36:17;;;;;;;;;;;;;;;22.71;50.97;100742.58;2189272;79;51494;-76
2023/09/01 13:39:19;;;;;;;;;;;;;;;22.75;50.89;100751.89;2189203;81;50265;-75
2023/09/01 13:42:20;;;;;;;;;;;;;;;22.73;50.94;100744.52;2165854;81;50616;-75
2023/09/01 13:45:22;;;;;;;;;;;;;;;22.73;50.94;100751.27;2160502;82;53035;-76
2023/09/01 13:48:23;;;;;;;;;;;;;;;22.72;50.96;100745.57;2164646;81;51493;-76
2023/09/01 13:51:25;;;;;;;;;;;;;;;22.74;50.94;100744.03;2159634;81;51427;-75
2023/09/01 13:54:27;;;;;;;;;;;;;;;22.74;50.98;100737.28;2164177;81;51549;-76
2023/09/01 13:57:28;;;;;;;;;;;;;;;22.72;50.96;100745.57;2159371;82;52559;-75
2023/09/01 14:00:30;;;;;;;;;;;;;;;22.71;50.98;100745.27;2159383;81;52380;-74
2023/09/01 14:03:31;;;;;;;;;;;;;;;22.72;50.95;100731.27;2159238;81;50337;-76
2023/09/01 14:06:34;;;;;;;;;;;;;;;22.70;51.02;100735.50;2164387;81;50287;-76
2023/09/01 14:09:35;;;;;;;;;;;;;;;22.68;51.08;100736.75;2164441;81;51515;-77
2023/09/01 14:12:37;;;;;;;;;;;;;;;22.68;51.11;100744.31;2136790;81;51251;-76
2023/09/01 14:15:38;;;;;;;;;;;;;;;22.71;51.04;100734.98;2159754;81;50643;-75
2023/09/01 14:18:41;;;;;;;;;;;;;;;22.73;51.02;100731.03;2158417;81;50325;-76
2023/09/01 14:21:43;;;;;;;;;;;;;;;22.74;51.08;100731.89;2176134;80;51580;-77
2023/09/01 14:24:45;;;;;;;;;;;;;;;22.73;51.06;100728.33;2157131;82;52664;-77
2023/09/01 14:27:47;;;;;;;;;;;;;;;22.73;51.01;100724.29;2153702;81;51320;-76
2023/09/01 14:30:48;;;;;;;;;;;;;;;22.70;51.13;100728.76;2176486;81;51573;-76
2023/09/01 14:33:50;;;;;;;;;;;;;;;22.69;51.18;100733.86;2153419;81;51446;-76
2023/09/01 14:36:51;;;;;;;;;;;;;;;22.69;51.18;100721.72;2153681;81;51428;-77
2023/09/01 14:39:53;;;;;;;;;;;;;;;22.71;51.20;100726.88;2176459;81;51435;-76
2023/09/01 14:42:54;;;;;;;;;;;;;;;22.72;51.20;100733.95;2153501;81;50663;-77
2023/09/01 14:45:56;;;;;;;;;;;;;;;22.71;51.18;100731.78;2152209;81;50253;-75
2023/09/01 14:48:58;;;;;;;;;;;;;;;22.71;51.24;100736.33;2153743;81;50259;-75
2023/09/01 14:51:59;;;;;;;;;;;;;;;22.72;51.19;100742.88;2153713;81;50640;-77
2023/09/01 14:55:01;;;;;;;;;;;;;;;22.72;51.23;100739.35;2176182;81;50651;-77
2023/09/01 14:58:03;;;;;;;;;;;;;;;22.71;51.18;100739.88;2176531;81;50082;-76
2023/09/01 15:01:04;;;;;;;;;;;;;;;22.71;51.21;100741.72;2176388;80;51430;-77
2023/09/01 15:04:06;;;;;;;;;;;;;;;22.69;51.28;100741.13;2176283;80;51468;-77
2023/09/01 15:07:08;;;;;;;;;;;;;;;22.69;51.27;100744.64;2153633;81;50922;-77
2023/09/01 15:10:09;;;;;;;;;;;;;;;22.69;51.27;100744.64;2176370;81;51735;-75
2023/09/01 15:13:14;;;;;;;;;;;;;;;22.70;51.26;100740.89;2153453;81;51406;-75
2023/09/01 15:16:16;;;;;;;;;;;;;;;22.70;51.26;100746.29;2152722;81;50348;-77
2023/09/01 15:19:18;;;;;;;;;;;;;;;22.69;51.26;100735.20;2155342;82;50119;-76
2023/09/01 15:22:19;;;;;;;;;;;;;;;22.67;51.32;100738.63;2154552;82;50683;-75
2023/09/01 15:25:21;;;;;;;;;;;;;;;22.68;51.33;100738.09;2155127;82;52542;-75
2023/09/01 15:28:22;;;;;;;;;;;;;;;22.68;51.30;100732.17;2155107;82;51489;-77
2023/09/01 15:31:24;;;;;;;;;;;;;;;22.68;51.30;100738.92;2151503;82;50878;-75
2023/09/01 15:34:26;;;;;;;;;;;;;;;22.68;51.30;100737.57;2151259;81;50403;-75
2023/09/01 15:37:27;;;;;;;;;;;;;;;22.68;51.36;100738.09;2155100;82;51149;-74
2023/09/01 15:40:29;;;;;;;;;;;;;;;22.66;51.35;100739.67;2151641;81;50266;-76
2023/09/01 15:43:31;;;;;;;;;;;;;;;22.66;51.37;100748.26;2151345;82;51460;-76
2023/09/01 15:46:33;;;;;;;;;;;;;;;22.65;51.37;100744.73;2152091;81;50522;-75
2023/09/01 15:49:35;;;;;;;;;;;;;;;22.65;51.38;100751.48;2153079;82;52649;-76
2023/09/01 15:52:36;;;;;;;;;;;;;;;22.65;51.38;100749.30;2175991;80;50762;-76
2023/09/01 15:55:38;;;;;;;;;;;;;;;22.66;51.38;100746.91;2153545;82;51432;-75
2023/09/01 15:58:40;;;;;;;;;;;;;;;22.64;51.40;100750.36;2176278;81;50762;-75
2023/09/01 16:01:41;;;;;;;;;;;;;;;22.66;51.38;100755.00;2153420;82;51436;-75
2023/09/01 16:04:43;;;;;;;;;;;;;;;22.66;51.36;100753.16;2176089;80;51435;-76
2023/09/01 16:07:44;;;;;;;;;;;;;;;22.64;51.39;100756.58;2153516;81;51466;-75
2023/09/01 16:10:47;;;;;;;;;;;;;;;22.65;51.38;100753.35;2153746;81;51543;-77
2023/09/01 16:13:49;;;;;;;;;;;;;;;22.65;51.38;100758.75;2157113;81;52607;-75
2023/09/01 16:16:53;;;;;;;;;;;;;;;22.65;51.39;100753.35;2152135;82;51528;-75
2023/09/01 16:19:54;;;;;;;;;;;;;;;22.64;51.39;100761.97;2176268;80;22322;-76
2023/09/01 16:22:56;;;;;;;;;;;;;;;22.64;51.39;100758.45;2176286;81;50597;-76
2023/09/01 16:25:57;;;;;;;;;;;;;;;22.64;51.40;100757.92;2176429;81;52452;-76
2023/09/01 16:28:59;;;;;;;;;;;;;;;22.63;51.37;100750.84;2176475;81;50603;-77
2023/09/01 16:32:00;;;;;;;;;;;;;;;22.63;51.38;100745.45;2153567;82;51464;-77
2023/09/01 16:35:04;;;;;;;;;;;;;;;22.61;51.40;100740.28;2153463;82;50563;-76
2023/09/01 16:38:05;;;;;;;;;;;;;;;22.61;51.42;100735.42;2157235;81;51566;-76
2023/09/01 16:41:07;;;;;;;;;;;;;;;22.61;51.40;100738.12;2176383;81;51470;-77
2023/09/01 16:44:10;;;;;;;;;;;;;;;22.60;51.43;100741.31;2153241;82;51498;-76
2023/09/01 16:47:12;;;;;;;;;;;;;;;22.61;51.41;100738.12;2153043;82;50310;-76
2023/09/01 16:50:15;;;;;;;;;;;;;;;22.61;51.41;100746.20;2176610;81;49541;-76
2023/09/01 16:53:17;;;;;;;;;;;;;;;22.60;51.39;100746.70;2153471;82;50770;-76
2023/09/01 16:56:18;;;;;;;;;;;;;;;22.60;51.42;100748.57;2153684;82;51544;-77
2023/09/01 16:59:20;;;;;;;;;;;;;;;22.59;51.42;100750.45;2153520;81;51560;-75
2023/09/01 17:02:21;;;;;;;;;;;;;;;22.58;51.43;100755.55;2156999;82;52392;-76
2023/09/01 17:05:23;;;;;;;;;;;;;;;22.59;51.41;100755.02;2176325;81;51458;-76
2023/09/01 17:08:26;;;;;;;;;;;;;;;22.58;51.43;100754.19;2176352;81;52138;-76
2023/09/01 17:11:28;;;;;;;;;;;;;;;22.59;51.44;100752.32;2152794;82;50422;-78
2023/09/01 17:14:30;;;;;;;;;;;;;;;22.58;51.42;100756.03;2156160;81;50597;-76
2023/09/01 17:17:32;;;;;;;;;;;;;;;22.57;51.46;100751.69;2145426;82;50278;-76
2023/09/01 17:20:34;;;;;;;;;;;;;;;22.57;51.43;100753.04;2152580;82;50694;-76
2023/09/01 17:23:36;;;;;;;;;;;;;;;22.59;51.43;100749.63;2155264;81;50617;-75
2023/09/01 17:26:37;;;;;;;;;;;;;;;22.57;51.43;100748.47;2147952;81;51559;-77
2023/09/01 17:29:39;;;;;;;;;;;;;;;22.57;51.41;100745.77;2165504;81;50318;-76
2023/09/01 17:32:41;;;;;;;;;;;;;;;22.57;51.39;100749.00;2151596;81;50359;-78
2023/09/01 17:35:42;;;;;;;;;;;;;;;22.56;51.42;100763.00;2155425;82;50633;-76
2023/09/01 17:38:45;;;;;;;;;;;;;;;22.56;51.42;100759.48;2132769;82;52620;-76
2023/09/01 17:41:47;;;;;;;;;;;;;;;22.55;51.45;100763.20;2155102;81;51582;-76
2023/09/01 17:44:48;;;;;;;;;;;;;;;22.55;51.47;100767.24;2155039;81;51509;-75
2023/09/01 17:47:50;;;;;;;;;;;;;;;22.56;51.42;100771.62;2151577;82;51513;-75
2023/09/01 17:50:52;;;;;;;;;;;;;;;22.54;51.44;100780.42;2155089;81;51703;-76
2023/09/01 17:53:55;;;;;;;;;;;;;;;22.55;51.40;100772.64;2155031;81;50283;-75
2023/09/01 17:56:57;;;;;;;;;;;;;;;22.54;51.43;100777.73;2152193;82;50576;-76
2023/09/01 17:59:58;;;;;;;;;;;;;;;22.53;51.46;100773.35;2152343;81;50745;-75
2023/09/01 18:03:01;;;;;;;;;;;;;;;22.54;51.58;100777.73;2155107;82;52485;-75
2023/09/01 18:06:03;;;;;;;;;;;;;;;22.55;51.54;100788.81;2155039;81;50152;-74
2023/09/01 18:09:04;;;;;;;;;;;;;;;22.54;51.57;100792.56;2155116;82;51438;-73
2023/09/01 18:12:06;;;;;;;;;;;;;;;22.50;51.74;100802.09;2151458;81;50715;-75
2023/09/01 18:15:08;;;;;;;;;;;;;;;22.46;51.96;100797.63;2154611;81;51680;-74
2023/09/01 18:18:09;;;;;;;;;;;;;;;22.49;51.86;100808.52;2155263;82;50106;-73
2023/09/01 18:21:11;;;;;;;;;;;;;;;22.45;52.06;100818.05;2151576;81;50635;-76
2023/09/01 18:24:17;;;;;;;;;;;;;;;22.49;52.03;100820.66;2151472;82;50361;-75
2023/09/01 18:27:23;;;;;;;;;;;;;;;22.51;51.85;100822.12;2151675;81;50762;-75
2023/09/01 18:30:25;;;;;;;;;;;;;;;22.49;51.94;100817.96;2147387;82;50322;-75
2023/09/01 18:33:30;;;;;;;;;;;;;;;22.47;52.10;100822.20;2151525;81;52261;-75
2023/09/01 18:36:30;;;;;;;;;;;;;;;22.50;52.26;100815.56;2133837;82;22460;-75
2023/09/01 18:39:35;;;;;;;;;;;;;;;22.52;52.31;100808.11;2155120;82;50386;-75
2023/09/01 18:42:41;;;;;;;;;;;;;;;22.53;52.11;100808.41;2151304;82;50737;-73
2023/09/01 18:45:43;;;;;;;;;;;;;;;22.53;52.01;100807.91;2151721;82;22408;-72
2023/09/01 18:48:45;;;;;;;;;;;;;;;22.54;51.96;100814.95;2151624;81;50295;-73
2023/09/01 18:51:57;;;;;;;;;;;;;;;22.54;51.95;100816.83;2155256;82;51719;-73
2023/09/01 18:54:53;;;;;;;;;;;;;;;22.54;51.96;100820.88;2153244;82;22330;-73
2023/09/01 18:57:55;;;;;;;;;;;;;;;22.54;51.96;100824.92;2155083;82;51599;-73
2023/09/01 19:00:57;;;;;;;;;;;;;;;22.54;51.95;100822.22;2151596;81;50261;-72
2023/09/01 19:04:00;;;;;;;;;;;;;;;22.53;51.95;100829.98;2155096;81;51121;-72
2023/09/01 19:07:02;;;;;;;;;;;;;;;22.55;51.93;100832.78;2152107;81;50366;-72
2023/09/01 19:10:05;;;;;;;;;;;;;;;22.55;51.93;100829.27;2153371;81;51600;-73
2023/09/01 19:13:06;;;;;;;;;;;;;;;22.55;51.92;100837.36;2151050;81;50683;-73
2023/09/01 19:16:08;;;;;;;;;;;;;;;22.53;51.94;100836.73;2132853;81;52374;-73
2023/09/01 19:19:10;;;;;;;;;;;;;;;22.54;51.96;100841.10;2118469;82;53817;-72
2023/09/01 19:22:11;;;;;;;;;;;;;;;22.53;51.96;100838.07;2120203;81;51448;-73
2023/09/01 19:25:13;;;;;;;;;;;;;;;22.51;52.07;100842.86;2131610;82;51170;-73
2023/09/01 19:28:14;;;;;;;;;;;;;;;22.46;52.24;100846.69;2152341;81;51181;-74
2023/09/01 19:31:16;;;;;;;;;;;;;;;22.49;52.09;100847.63;2119938;81;51485;-73
2023/09/01 19:34:18;;;;;;;;;;;;;;;22.50;52.10;100855.49;2140740;81;50770;-71
2023/09/01 19:37:20;;;;;;;;;;;;;;;22.50;52.15;100856.84;2164173;80;50125;-73
2023/09/01 19:40:24;;;;;;;;;;;;;;;22.52;52.29;100867.44;2130665;81;49936;-73
2023/09/01 19:43:26;;;;;;;;;;;;;;;22.51;52.29;100864.44;2147661;81;51483;-74
2023/09/01 19:46:28;;;;;;;;;;;;;;;22.49;52.41;100869.20;2131255;81;50218;-73
2023/09/01 19:49:29;;;;;;;;;;;;;;;22.51;52.38;100873.88;2136151;81;50275;-74
2023/09/01 19:52:32;;;;;;;;;;;;;;;22.50;52.40;100870.84;2126075;81;52489;-73
2023/09/01 19:55:34;;;;;;;;;;;;;;;22.54;52.35;100874.81;2135081;81;50422;-74
2023/09/01 19:58:35;;;;;;;;;;;;;;;22.52;52.32;100871.48;2125729;81;51533;-73
2023/09/01 20:01:37;;;;;;;;;;;;;;;22.55;52.30;100873.77;2120242;81;51563;-72
2023/09/01 20:04:39;;;;;;;;;;;;;;;22.57;52.27;100874.39;2125793;81;52428;-74
2023/09/01 20:07:40;;;;;;;;;;;;;;;22.54;52.32;100880.20;2135918;81;50341;-75
2023/09/01 20:10:42;;;;;;;;;;;;;;;22.54;52.36;100882.38;2128394;81;50646;-76
2023/09/01 20:13:43;;;;;;;;;;;;;;;22.54;52.38;100875.64;2132375;81;51431;-74
2023/09/01 20:16:45;;;;;;;;;;;;;;;22.54;52.39;100881.55;2124338;81;50620;-74
2023/09/01 20:19:47;;;;;;;;;;;;;;;22.53;52.41;100881.22;2125422;81;51527;-75
2023/09/01 20:22:48;;;;;;;;;;;;;;;22.55;52.41;100885.90;2121389;81;50088;-74
2023/09/01 20:25:51;;;;;;;;;;;;;;;22.55;52.39;100885.90;2135204;81;50649;-75
2023/09/01 20:28:53;;;;;;;;;;;;;;;22.58;52.34;100898.97;2120156;81;52458;-75
2023/09/01 20:31:54;;;;;;;;;;;;;;;22.55;52.44;100895.34;2152573;81;50282;-75
2023/09/01 20:34:56;;;;;;;;;;;;;;;22.57;52.30;100901.37;2167006;81;50637;-74
2023/09/01 20:37:58;;;;;;;;;;;;;;;22.55;52.32;100904.78;2149261;81;50420;-74
2023/09/01 20:40:59;;;;;;;;;;;;;;;22.55;52.30;100911.52;2126555;81;52706;-74
2023/09/01 20:44:01;;;;;;;;;;;;;;;22.54;52.29;100908.52;2144508;82;51460;-74
2023/09/01 20:47:03;;;;;;;;;;;;;;;22.54;52.27;100909.87;2146210;82;51500;-74
2023/09/01 20:50:05;;;;;;;;;;;;;;;22.52;52.25;100906.02;2147856;82;51526;-74
2023/09/01 20:53:07;;;;;;;;;;;;;;;22.52;52.25;100907.89;2145650;82;51417;-74
2023/09/01 20:56:08;;;;;;;;;;;;;;;22.53;52.25;100906.84;2145100;82;50610;-74
2023/09/01 20:59:10;;;;;;;;;;;;;;;22.51;52.25;100909.76;2145410;82;50638;-74
2023/09/01 21:02:12;;;;;;;;;;;;;;;22.53;52.22;100914.93;2148787;82;51422;-74
2023/09/01 21:05:13;;;;;;;;;;;;;;;22.53;52.21;100921.67;2155850;82;52428;-74
2023/09/01 21:08:15;;;;;;;;;;;;;;;22.52;52.21;100922.20;2153087;81;51331;-74
2023/09/01 21:11:16;;;;;;;;;;;;;;;22.52;52.22;100924.06;2153599;81;51428;-74
2023/09/01 21:14:18;;;;;;;;;;;;;;;22.52;52.22;100928.11;2176003;81;51410;-74
2023/09/01 21:17:20;;;;;;;;;;;;;;;22.52;52.18;100924.06;2153208;81;52314;-73
2023/09/01 21:20:22;;;;;;;;;;;;;;;22.50;52.23;100926.95;2153542;81;50692;-73
2023/09/01 21:23:24;;;;;;;;;;;;;;;22.50;52.20;100926.95;2153398;81;51527;-74
2023/09/01 21:26:27;;;;;;;;;;;;;;;22.50;52.19;100924.26;2153555;81;50731;-73